Time;durP1;ratioP1;P1;durP2;ratioP2;P2;SDS_P1;SDS_P2;PMS_P1;PMS_P2;Temp;Humidity;BMP_temperature;BMP_pressure;BME280_temperature;BME280_humidity;BME280_pressure;Samples;Min_cycle;Max_cycle;Signal;HPM_P1;HPM_P2
2024/01/19 00:01:40;;;;;;;0.00;0.00;;;27.50;49.90;;;;;;5009185;28;20221;-40
2024/01/19 00:04:11;;;;;;;0.00;0.00;;;27.60;49.90;;;;;;5009230;28;20228;-40
2024/01/19 00:06:42;;;;;;;0.00;0.00;;;27.60;49.90;;;;;;5009209;28;20228;-40
2024/01/19 00:09:14;;;;;;;0.00;0.00;;;27.60;49.90;;;;;;5008851;28;20783;-40
2024/01/19 00:11:45;;;;;;;0.00;0.00;;;27.60;49.80;;;;;;5008510;28;20220;-41
2024/01/19 00:14:16;;;;;;;0.00;0.00;;;27.60;49.80;;;;;;5009436;28;20308;-41
2024/01/19 00:16:46;;;;;;;0.00;0.00;;;27.70;49.80;;;;;;5009355;28;20208;-40
2024/01/19 00:19:17;;;;;;;0.00;0.00;;;27.70;49.70;;;;;;5008544;28;20212;-41
2024/01/19 00:21:48;;;;;;;0.00;0.00;;;27.70;49.80;;;;;;5009329;28;20313;-41
2024/01/19 00:24:20;;;;;;;0.00;0.00;;;27.70;49.70;;;;;;5009761;28;20201;-40
2024/01/19 00:26:51;;;;;;;0.00;0.00;;;27.80;49.80;;;;;;5008619;28;20244;-41
2024/01/19 00:29:22;;;;;;;0.00;0.00;;;27.80;49.70;;;;;;5008906;28;20643;-41
2024/01/19 00:31:53;;;;;;;0.00;0.00;;;27.80;49.70;;;;;;5008751;28;20229;-40
2024/01/19 00:34:23;;;;;;;0.00;0.00;;;27.80;49.70;;;;;;5008753;28;20213;-41
2024/01/19 00:36:54;;;;;;;0.00;0.00;;;27.80;49.60;;;;;;5008688;28;20712;-41
2024/01/19 00:39:27;;;;;;;0.00;0.00;;;27.90;49.70;;;;;;5008546;28;20207;-42
2024/01/19 00:41:57;;;;;;;0.00;0.00;;;27.90;49.70;;;;;;5008247;28;20224;-44
2024/01/19 00:44:28;;;;;;;0.00;0.00;;;27.90;49.70;;;;;;5008816;28;20664;-42
2024/01/19 00:46:59;;;;;;;0.00;0.00;;;28.00;49.70;;;;;;5008000;28;20318;-42
2024/01/19 00:49:30;;;;;;;0.00;0.00;;;28.00;49.70;;;;;;5007746;28;20204;-40
2024/01/19 00:52:00;;;;;;;0.00;0.00;;;28.00;49.70;;;;;;5008483;28;20597;-43
2024/01/19 00:54:33;;;;;;;0.00;0.00;;;28.10;49.70;;;;;;5007562;28;20222;-44
2024/01/19 00:57:04;;;;;;;0.00;0.00;;;28.10;49.70;;;;;;5008673;28;20216;-40
2024/01/19 00:59:34;;;;;;;0.00;0.00;;;28.10;49.70;;;;;;5007742;28;20228;-41
2024/01/19 01:02:05;;;;;;;0.00;0.00;;;28.10;49.70;;;;;;5008735;28;20212;-41
2024/01/19 01:04:36;;;;;;;0.00;0.00;;;28.20;49.80;;;;;;5012405;28;20205;-42
2024/01/19 01:07:08;;;;;;;0.00;0.00;;;28.20;49.80;;;;;;5011454;28;20224;-41
2024/01/19 01:09:40;;;;;;;0.00;0.00;;;28.30;49.90;;;;;;5012087;28;20215;-45
2024/01/19 01:12:11;;;;;;;0.00;0.00;;;28.30;49.90;;;;;;5012028;28;20213;-41
2024/01/19 01:14:42;;;;;;;0.00;0.00;;;28.30;49.70;;;;;;5011531;28;20205;-43
2024/01/19 01:17:12;;;;;;;0.00;0.00;;;28.40;49.80;;;;;;5012512;28;20207;-41
2024/01/19 01:19:43;;;;;;;0.00;0.00;;;28.40;50.40;;;;;;5012119;28;20196;-41
2024/01/19 01:22:13;;;;;;;0.00;0.00;;;28.50;49.70;;;;;;5011902;28;20275;-41
2024/01/19 01:24:46;;;;;;;0.00;0.00;;;28.50;49.50;;;;;;5011860;28;20207;-41
2024/01/19 01:27:17;;;;;;;0.00;0.00;;;28.50;49.50;;;;;;5008264;28;20236;-41
2024/01/19 01:29:47;;;;;;;0.00;0.00;;;28.60;49.50;;;;;;5007636;28;20669;-41
2024/01/19 01:32:18;;;;;;;0.00;0.00;;;28.60;49.40;;;;;;5007738;28;20239;-41
2024/01/19 01:34:49;;;;;;;0.00;0.00;;;28.70;49.60;;;;;;5008769;28;20204;-40
2024/01/19 01:37:19;;;;;;;0.00;0.00;;;28.70;49.50;;;;;;5006818;28;20197;-41
2024/01/19 01:39:52;;;;;;;0.00;0.00;;;28.70;49.40;;;;;;5007299;28;20205;-41
2024/01/19 01:42:23;;;;;;;0.00;0.00;;;28.80;49.40;;;;;;5007582;28;20225;-42
2024/01/19 01:44:53;;;;;;;0.00;0.00;;;28.80;49.40;;;;;;5007794;28;20650;-41
2024/01/19 01:47:24;;;;;;;0.00;0.00;;;28.80;49.20;;;;;;5007807;28;20232;-41
2024/01/19 01:49:55;;;;;;;0.00;0.00;;;28.80;49.20;;;;;;5007502;28;20596;-41
2024/01/19 01:52:26;;;;;;;0.00;0.00;;;28.90;49.90;;;;;;5008219;28;20553;-41
2024/01/19 01:54:59;;;;;;;0.00;0.00;;;28.90;49.20;;;;;;5007485;28;20235;-41
2024/01/19 01:57:29;;;;;;;0.00;0.00;;;28.90;49.20;;;;;;5008277;28;20193;-41
2024/01/19 02:00:00;;;;;;;0.00;0.00;;;28.90;49.10;;;;;;5006820;28;20572;-41
2024/01/19 02:02:31;;;;;;;0.00;0.00;;;28.90;49.10;;;;;;5007494;28;20224;-40
2024/01/19 02:05:02;;;;;;;0.00;0.00;;;28.90;49.10;;;;;;5007140;28;20235;-43
2024/01/19 02:07:33;;;;;;;0.00;0.00;;;28.90;48.90;;;;;;5010799;28;20233;-41
2024/01/19 02:10:06;;;;;;;0.00;0.00;;;29.00;49.00;;;;;;5011449;28;20205;-41
2024/01/19 02:12:36;;;;;;;0.00;0.00;;;29.00;48.70;;;;;;5010852;28;20312;-41
2024/01/19 02:15:08;;;;;;;0.00;0.00;;;29.00;48.70;;;;;;5009936;28;20209;-41
2024/01/19 02:17:38;;;;;;;0.00;0.00;;;29.00;48.60;;;;;;5011903;28;20208;-43
2024/01/19 02:20:10;;;;;;;0.00;0.00;;;29.00;48.40;;;;;;5011089;28;20204;-44
2024/01/19 02:22:41;;;;;;;0.00;0.00;;;29.10;48.40;;;;;;5011090;28;20360;-41
2024/01/19 02:25:14;;;;;;;0.00;0.00;;;29.10;48.20;;;;;;5011712;28;20209;-41
2024/01/19 02:27:45;;;;;;;0.00;0.00;;;29.10;48.20;;;;;;5010674;28;20224;-41
2024/01/19 02:30:16;;;;;;;0.00;0.00;;;29.10;48.10;;;;;;5011534;28;20204;-42
2024/01/19 02:32:47;;;;;;;0.00;0.00;;;29.10;48.20;;;;;;5010586;28;20628;-41
2024/01/19 02:35:17;;;;;;;0.00;0.00;;;29.10;48.10;;;;;;5010339;28;20240;-40
2024/01/19 02:37:48;;;;;;;0.00;0.00;;;29.20;48.10;;;;;;5010831;28;20204;-41
2024/01/19 02:40:21;;;;;;;0.00;0.00;;;29.10;48.10;;;;;;5010400;28;20204;-42
2024/01/19 02:42:51;;;;;;;0.00;0.00;;;29.10;48.00;;;;;;5010871;28;20224;-41
2024/01/19 02:45:22;;;;;;;0.00;0.00;;;29.10;48.00;;;;;;5010543;28;20742;-42
2024/01/19 02:47:53;;;;;;;0.00;0.00;;;29.10;48.10;;;;;;5010506;28;20225;-40
2024/01/19 02:50:23;;;;;;;0.00;0.00;;;29.10;48.00;;;;;;5010575;28;20226;-42
2024/01/19 02:52:54;;;;;;;0.00;0.00;;;29.10;48.00;;;;;;5011024;28;20232;-41
2024/01/19 02:55:26;;;;;;;0.00;0.00;;;29.20;48.00;;;;;;5010339;28;20196;-41
2024/01/19 02:57:57;;;;;;;0.00;0.00;;;29.20;47.90;;;;;;5010592;28;20209;-45
2024/01/19 03:00:28;;;;;;;0.00;0.00;;;29.10;47.60;;;;;;5009851;28;20796;-43
2024/01/19 03:02:58;;;;;;;0.00;0.00;;;29.10;47.80;;;;;;5010037;28;20587;-41
2024/01/19 03:05:29;;;;;;;0.00;0.00;;;29.10;47.80;;;;;;5010506;28;20197;-41
2024/01/19 03:08:00;;;;;;;0.00;0.00;;;29.20;47.70;;;;;;5009918;28;20695;-40
2024/01/19 03:10:32;;;;;;;0.00;0.00;;;29.20;47.60;;;;;;5010278;28;20197;-41
2024/01/19 03:13:03;;;;;;;0.00;0.00;;;29.20;47.40;;;;;;5009826;28;20655;-41
2024/01/19 03:15:34;;;;;;;0.00;0.00;;;29.20;47.30;;;;;;5010425;28;20208;-40
2024/01/19 03:18:05;;;;;;;0.00;0.00;;;29.20;47.30;;;;;;5009054;28;20215;-41
2024/01/19 03:20:35;;;;;;;0.00;0.00;;;29.20;47.10;;;;;;5010287;28;20536;-41
2024/01/19 03:23:07;;;;;;;0.00;0.00;;;29.30;47.20;;;;;;5009910;28;20228;-40
2024/01/19 03:25:40;;;;;;;0.00;0.00;;;29.20;47.10;;;;;;5009995;28;20197;-40
2024/01/19 03:28:11;;;;;;;0.00;0.00;;;29.30;47.20;;;;;;5010284;28;20256;-43
2024/01/19 03:30:42;;;;;;;0.00;0.00;;;29.30;47.30;;;;;;5010128;28;20759;-41
2024/01/19 03:33:12;;;;;;;0.00;0.00;;;29.20;47.10;;;;;;5009514;28;20221;-40
2024/01/19 03:35:43;;;;;;;0.00;0.00;;;29.20;47.20;;;;;;5009291;28;20205;-43
2024/01/19 03:38:14;;;;;;;0.00;0.00;;;29.30;47.30;;;;;;5009226;28;20625;-41
2024/01/19 03:40:47;;;;;;;0.00;0.00;;;29.30;47.30;;;;;;5010080;28;20211;-44
2024/01/19 03:43:17;;;;;;;0.00;0.00;;;29.20;47.30;;;;;;5009540;28;20696;-41
2024/01/19 03:45:48;;;;;;;0.00;0.00;;;29.30;47.30;;;;;;5009601;28;20428;-46
2024/01/19 03:48:19;;;;;;;0.00;0.00;;;29.20;47.10;;;;;;5009098;28;20315;-43
2024/01/19 03:50:49;;;;;;;0.00;0.00;;;29.30;47.20;;;;;;5009436;28;20197;-41
2024/01/19 03:53:20;;;;;;;0.00;0.00;;;29.20;47.10;;;;;;5009220;28;20225;-45
2024/01/19 03:55:53;;;;;;;0.00;0.00;;;29.20;47.00;;;;;;5009457;28;20201;-41
2024/01/19 03:58:23;;;;;;;0.00;0.00;;;29.20;47.00;;;;;;5008780;28;20196;-43
2024/01/19 04:00:54;;;;;;;0.00;0.00;;;29.20;47.00;;;;;;5008962;28;20197;-41
2024/01/19 04:03:25;;;;;;;0.00;0.00;;;29.30;46.90;;;;;;5009263;28;20228;-42
2024/01/19 04:05:55;;;;;;;0.00;0.00;;;29.20;46.70;;;;;;5008938;28;20196;-40
2024/01/19 04:08:26;;;;;;;0.00;0.00;;;29.20;46.60;;;;;;5008778;28;20228;-40
2024/01/19 04:10:58;;;;;;;0.00;0.00;;;29.30;46.40;;;;;;5008296;28;20669;-40
2024/01/19 04:13:29;;;;;;;0.00;0.00;;;29.30;46.30;;;;;;5009166;28;20221;-45
2024/01/19 04:16:00;;;;;;;0.00;0.00;;;29.30;46.40;;;;;;5007990;28;20197;-40
2024/01/19 04:18:30;;;;;;;0.00;0.00;;;29.30;46.40;;;;;;5009272;28;20204;-41
2024/01/19 04:21:01;;;;;;;0.00;0.00;;;29.30;46.40;;;;;;5008859;28;20251;-41
2024/01/19 04:23:32;;;;;;;0.00;0.00;;;29.30;46.40;;;;;;5008426;28;20228;-40
2024/01/19 04:26:04;;;;;;;0.00;0.00;;;29.30;46.40;;;;;;5008218;28;20540;-41
2024/01/19 04:28:35;;;;;;;0.00;0.00;;;29.30;46.50;;;;;;5009303;28;20224;-41
2024/01/19 04:31:06;;;;;;;0.00;0.00;;;29.30;46.60;;;;;;5008707;28;20665;-41
2024/01/19 04:33:37;;;;;;;0.00;0.00;;;29.30;46.40;;;;;;5008964;28;20302;-41
2024/01/19 04:36:08;;;;;;;0.00;0.00;;;29.30;46.50;;;;;;5008325;28;20204;-40
2024/01/19 04:38:38;;;;;;;0.00;0.00;;;29.30;46.50;;;;;;5008272;28;20967;-40
2024/01/19 04:41:11;;;;;;;0.00;0.00;;;29.20;46.40;;;;;;5009409;28;20515;-40
2024/01/19 04:43:41;;;;;;;0.00;0.00;;;29.20;46.40;;;;;;5008843;28;20220;-41
2024/01/19 04:46:12;;;;;;;0.00;0.00;;;29.20;46.30;;;;;;4990009;28;20852;-40
2024/01/19 04:48:43;;;;;;;0.00;0.00;;;29.30;46.40;;;;;;4988999;28;20636;-44
2024/01/19 04:51:13;;;;;;;0.00;0.00;;;29.20;46.10;;;;;;4989289;28;20212;-42
2024/01/19 04:53:44;;;;;;;0.00;0.00;;;29.20;45.90;;;;;;4989216;28;20197;-43
2024/01/19 04:56:17;;;;;;;0.00;0.00;;;29.30;45.80;;;;;;5006780;28;20223;-42
2024/01/19 04:58:47;;;;;;;0.00;0.00;;;29.30;45.80;;;;;;5007635;28;20211;-40
2024/01/19 05:01:19;;;;;;;0.00;0.00;;;29.30;45.70;;;;;;5008539;28;20204;-42
2024/01/19 05:03:50;;;;;;;0.00;0.00;;;29.30;45.50;;;;;;5008966;28;20284;-42
2024/01/19 05:06:21;;;;;;;0.00;0.00;;;29.30;45.40;;;;;;5008127;28;20200;-42
2024/01/19 05:08:52;;;;;;;0.00;0.00;;;29.30;45.40;;;;;;5007926;28;20649;-48
2024/01/19 05:11:24;;;;;;;0.00;0.00;;;29.30;45.50;;;;;;5007053;28;20201;-45
2024/01/19 05:13:55;;;;;;;0.00;0.00;;;29.30;45.60;;;;;;5008403;28;20208;-42
2024/01/19 05:16:25;;;;;;;0.00;0.00;;;29.30;45.80;;;;;;5007847;28;20204;-41
2024/01/19 05:18:56;;;;;;;0.00;0.00;;;29.40;45.90;;;;;;5008157;28;20279;-45
2024/01/19 05:21:27;;;;;;;0.00;0.00;;;29.30;45.80;;;;;;5007952;28;20673;-42
2024/01/19 05:23:57;;;;;;;0.00;0.00;;;29.30;45.80;;;;;;5007471;28;20208;-45
2024/01/19 05:26:31;;;;;;;0.00;0.00;;;29.30;45.80;;;;;;5008202;28;20197;-44
2024/01/19 05:29:02;;;;;;;0.00;0.00;;;29.30;45.80;;;;;;5008101;28;20320;-44
2024/01/19 05:31:33;;;;;;;0.00;0.00;;;29.30;45.80;;;;;;5008458;28;20685;-48
2024/01/19 05:34:03;;;;;;;0.00;0.00;;;29.30;45.90;;;;;;5008184;28;20463;-42
2024/01/19 05:36:34;;;;;;;0.00;0.00;;;29.30;45.80;;;;;;5007918;28;20204;-42
2024/01/19 05:39:05;;;;;;;0.00;0.00;;;29.20;45.70;;;;;;5007975;28;20213;-41
2024/01/19 05:41:37;;;;;;;0.00;0.00;;;29.20;45.60;;;;;;5010857;28;20236;-41
2024/01/19 05:44:08;;;;;;;0.00;0.00;;;29.30;45.70;;;;;;5011555;28;20208;-43
2024/01/19 05:46:39;;;;;;;0.00;0.00;;;29.30;45.60;;;;;;5011533;28;20208;-40
2024/01/19 05:49:09;;;;;;;0.00;0.00;;;29.30;45.60;;;;;;5011214;28;20236;-44
2024/01/19 05:51:40;;;;;;;0.00;0.00;;;29.20;45.60;;;;;;5011375;28;20220;-46
2024/01/19 05:54:11;;;;;;;0.00;0.00;;;29.20;45.60;;;;;;5011177;28;20185;-45
2024/01/19 05:56:43;;;;;;;0.00;0.00;;;29.30;45.60;;;;;;5011828;28;20279;-41
2024/01/19 05:59:15;;;;;;;0.00;0.00;;;29.30;45.50;;;;;;5012536;28;20215;-42
2024/01/19 06:01:45;;;;;;;0.00;0.00;;;29.20;45.60;;;;;;5010663;28;20216;-43
2024/01/19 06:04:16;;;;;;;0.00;0.00;;;29.20;45.60;;;;;;5011331;28;20239;-42
2024/01/19 06:06:47;;;;;;;0.00;0.00;;;29.30;45.70;;;;;;5011833;28;20208;-43
2024/01/19 06:09:17;;;;;;;0.00;0.00;;;29.20;45.30;;;;;;5011244;28;20235;-45
2024/01/19 06:11:50;;;;;;;0.00;0.00;;;29.20;45.30;;;;;;5011861;28;20227;-47
2024/01/19 06:14:20;;;;;;;0.00;0.00;;;29.20;45.30;;;;;;5011233;28;20578;-46
2024/01/19 06:16:52;;;;;;;0.00;0.00;;;29.20;45.10;;;;;;5011453;28;20263;-44
2024/01/19 06:19:23;;;;;;;0.00;0.00;;;29.10;45.00;;;;;;5010079;28;20276;-44
2024/01/19 06:21:54;;;;;;;0.00;0.00;;;29.20;45.00;;;;;;5011267;28;20213;-42
2024/01/19 06:24:24;;;;;;;0.00;0.00;;;29.10;45.10;;;;;;5011853;28;20205;-44
2024/01/19 06:26:57;;;;;;;0.00;0.00;;;29.10;45.20;;;;;;5011767;28;20212;-41
2024/01/19 06:29:28;;;;;;;0.00;0.00;;;29.10;45.20;;;;;;5005870;28;20220;-45
2024/01/19 06:31:59;;;;;;;0.00;0.00;;;29.10;45.20;;;;;;5010862;28;20244;-43
2024/01/19 06:34:30;;;;;;;0.00;0.00;;;29.10;45.10;;;;;;5011384;28;20287;-43
2024/01/19 06:37:00;;;;;;;0.00;0.00;;;29.10;45.10;;;;;;5010103;28;20433;-44
2024/01/19 06:39:31;;;;;;;0.00;0.00;;;29.10;45.10;;;;;;5011355;28;20205;-43
2024/01/19 06:42:04;;;;;;;0.00;0.00;;;29.10;45.10;;;;;;5010655;28;20244;-44
2024/01/19 06:44:34;;;;;;;0.00;0.00;;;29.10;45.10;;;;;;5010658;28;20211;-48
2024/01/19 06:47:05;;;;;;;0.00;0.00;;;29.10;45.10;;;;;;5010428;28;20662;-49
2024/01/19 06:49:36;;;;;;;0.00;0.00;;;29.10;45.10;;;;;;5010085;28;20572;-44
2024/01/19 06:52:07;;;;;;;0.00;0.00;;;29.10;45.10;;;;;;5008198;28;20339;-43
2024/01/19 06:54:37;;;;;;;0.00;0.00;;;29.10;45.20;;;;;;5009755;28;20254;-44
2024/01/19 06:57:10;;;;;;;0.00;0.00;;;29.10;45.30;;;;;;5010677;28;20212;-44
2024/01/19 06:59:41;;;;;;;0.00;0.00;;;29.10;45.20;;;;;;5010325;28;20684;-43
2024/01/19 07:02:13;;;;;;;0.00;0.00;;;29.10;45.20;;;;;;5010212;28;20221;-45
2024/01/19 07:04:44;;;;;;;0.00;0.00;;;29.10;45.20;;;;;;5012236;28;20197;-47
2024/01/19 07:07:14;;;;;;;0.00;0.00;;;29.00;45.00;;;;;;5013042;28;20664;-45
2024/01/19 07:09:45;;;;;;;0.00;0.00;;;29.00;45.00;;;;;;5014138;28;20192;-49
2024/01/19 07:12:18;;;;;;;0.00;0.00;;;29.00;45.00;;;;;;5014009;28;20220;-48
2024/01/19 07:14:49;;;;;;;0.00;0.00;;;29.00;45.00;;;;;;5013850;28;20215;-48
2024/01/19 07:17:20;;;;;;;0.00;0.00;;;29.00;45.60;;;;;;5014171;28;20185;-45
2024/01/19 07:19:50;;;;;;;0.00;0.00;;;29.00;45.00;;;;;;5013692;28;20201;-43
2024/01/19 07:22:21;;;;;;;0.00;0.00;;;28.90;45.60;;;;;;5011846;28;20308;-44
2024/01/19 07:24:51;;;;;;;0.00;0.00;;;28.90;44.70;;;;;;5013648;28;20563;-45
2024/01/19 07:27:24;;;;;;;0.00;0.00;;;28.90;44.70;;;;;;5013741;28;20193;-44
2024/01/19 07:29:55;;;;;;;0.00;0.00;;;28.90;44.60;;;;;;5013834;28;20225;-42
2024/01/19 07:32:26;;;;;;;0.00;0.00;;;28.90;44.60;;;;;;5013625;28;20220;-42
2024/01/19 07:34:56;;;;;;;0.00;0.00;;;28.90;44.70;;;;;;5013664;28;20645;-45
2024/01/19 07:37:27;;;;;;;0.00;0.00;;;28.90;44.70;;;;;;5012967;28;20201;-45
2024/01/19 07:39:57;;;;;;;0.00;0.00;;;28.80;44.70;;;;;;5013408;28;20193;-41
2024/01/19 07:42:30;;;;;;;0.00;0.00;;;28.80;44.60;;;;;;5013681;28;20577;-43
2024/01/19 07:45:00;;;;;;;0.00;0.00;;;28.90;44.70;;;;;;5013710;28;20653;-42
2024/01/19 07:47:32;;;;;;;0.00;0.00;;;28.80;44.70;;;;;;5013384;28;20201;-42
2024/01/19 07:50:04;;;;;;;0.00;0.00;;;28.80;44.80;;;;;;5012684;28;20201;-42
2024/01/19 07:52:35;;;;;;;0.00;0.00;;;28.80;44.70;;;;;;5013037;28;20248;-45
2024/01/19 07:55:06;;;;;;;0.00;0.00;;;28.80;44.60;;;;;;5012199;28;20196;-42
2024/01/19 07:57:38;;;;;;;0.00;0.00;;;28.80;44.60;;;;;;5012609;28;20208;-43
2024/01/19 08:00:10;;;;;;;0.00;0.00;;;28.80;44.60;;;;;;5012816;28;20205;-42
2024/01/19 08:02:43;;;;;;;0.00;0.00;;;28.80;44.50;;;;;;5006484;28;20340;-44
2024/01/19 08:05:14;;;;;;;0.00;0.00;;;28.70;44.50;;;;;;5008760;28;20193;-42
2024/01/19 08:07:45;;;;;;;0.00;0.00;;;28.70;44.50;;;;;;5009120;28;20208;-44
2024/01/19 08:10:15;;;;;;;0.00;0.00;;;28.70;44.50;;;;;;5008926;28;20605;-42
2024/01/19 08:12:48;;;;;;;0.00;0.00;;;28.70;44.50;;;;;;5008854;28;20225;-42
2024/01/19 08:15:38;;;;;;;0.00;0.00;;;28.70;44.60;;;;;;5008598;28;20748;-42
2024/01/19 08:18:18;;;;;;;0.00;0.00;;;28.60;44.60;;;;;;4991079;28;20192;-42
2024/01/19 08:21:00;;;;;;;0.00;0.00;;;28.70;44.70;;;;;;5007884;28;20650;-42
2024/01/19 08:24:00;;;;;;;0.00;0.00;;;28.60;44.60;;;;;;5007230;28;20681;-42
2024/01/19 08:30:08;;;;;;;0.00;0.00;;;28.60;44.60;;;;;;5009036;28;20278;-42
2024/01/19 08:32:55;;;;;;;0.00;0.00;;;28.60;44.70;;;;;;5008468;28;20217;-45
2024/01/19 08:36:00;;;;;;;0.00;0.00;;;28.60;44.60;;;;;;5007506;28;20487;-41
2024/01/19 08:54:22;;;;;;;0.00;0.00;;;28.50;44.30;;;;;;5007089;28;20279;-41
2024/01/19 08:57:09;;;;;;;0.00;0.00;;;28.40;44.20;;;;;;5008072;28;20263;-42
2024/01/19 09:00:14;;;;;;;0.00;0.00;;;28.40;44.20;;;;;;5006415;28;20205;-41
2024/01/19 09:03:00;;;;;;;0.00;0.00;;;28.40;44.20;;;;;;5006181;28;20708;-42
2024/01/19 09:05:38;;;;;;;0.00;0.00;;;28.40;44.30;;;;;;4996887;28;20211;-41
2024/01/19 09:08:43;;;;;;;0.00;0.00;;;28.40;44.30;;;;;;5007970;28;20204;-41
2024/01/19 09:11:47;;;;;;;0.00;0.00;;;28.40;44.30;;;;;;4984263;28;20703;-42
2024/01/19 09:14:38;;;;;;;0.00;0.00;;;28.30;44.30;;;;;;4986408;28;20201;-46
2024/01/19 09:17:14;;;;;;;0.00;0.00;;;28.30;44.40;;;;;;4999638;28;20193;-43
2024/01/19 09:19:54;;;;;;;0.00;0.00;;;28.30;44.40;;;;;;5006050;28;20604;-43
2024/01/19 09:22:36;;;;;;;0.00;0.00;;;28.30;44.50;;;;;;5006003;28;20248;-41
2024/01/19 09:31:21;;;;;;;0.00;0.00;;;28.30;44.50;;;;;;5007518;28;20204;-46
2024/01/19 09:33:52;;;;;;;0.00;0.00;;;28.30;45.10;;;;;;5007481;28;20291;-41
2024/01/19 09:36:22;;;;;;;0.00;0.00;;;28.20;44.30;;;;;;5007599;28;20200;-43
2024/01/19 09:38:55;;;;;;;0.00;0.00;;;28.30;44.30;;;;;;5007503;28;20204;-43
2024/01/19 09:41:33;;;;;;;0.00;0.00;;;28.30;44.20;;;;;;5007652;28;20197;-41
2024/01/19 09:44:08;;;;;;;0.00;0.00;;;28.20;44.20;;;;;;5007918;28;20201;-41
2024/01/19 09:46:57;;;;;;;0.00;0.00;;;28.20;44.10;;;;;;5007152;28;20204;-41
2024/01/19 09:49:40;;;;;;;0.00;0.00;;;28.20;44.10;;;;;;5006858;28;20836;-43
2024/01/19 09:52:29;;;;;;;0.00;0.00;;;28.20;44.10;;;;;;5007842;28;20216;-48
2024/01/19 09:55:01;;;;;;;0.00;0.00;;;28.10;44.10;;;;;;5007532;28;20532;-47
2024/01/19 09:57:34;;;;;;;0.00;0.00;;;28.20;44.10;;;;;;5004593;28;20205;-48
2024/01/19 10:00:06;;;;;;;0.00;0.00;;;28.10;44.10;;;;;;4996764;28;20701;-45
2024/01/19 10:02:37;;;;;;;0.00;0.00;;;28.10;44.10;;;;;;5002822;28;20225;-46
2024/01/19 10:05:08;;;;;;;0.00;0.00;;;28.10;44.20;;;;;;5005503;28;20212;-46
2024/01/19 10:07:41;;;;;;;0.00;0.00;;;28.10;44.20;;;;;;5007169;28;20208;-41
2024/01/19 10:10:15;;;;;;;0.00;0.00;;;28.10;44.30;;;;;;5007389;28;20224;-41
2024/01/19 10:12:45;;;;;;;0.00;0.00;;;28.10;45.00;;;;;;5007735;28;20271;-46
2024/01/19 10:15:17;;;;;;;0.00;0.00;;;28.10;44.40;;;;;;5007527;28;20659;-41
2024/01/19 10:17:48;;;;;;;0.00;0.00;;;28.10;44.40;;;;;;5008520;28;20617;-46
2024/01/19 10:20:19;;;;;;;0.00;0.00;;;28.10;44.40;;;;;;5006510;28;20223;-54
2024/01/19 10:22:50;;;;;;;0.00;0.00;;;28.10;44.40;;;;;;5006851;28;20638;-49
2024/01/19 10:25:22;;;;;;;0.00;0.00;;;28.10;44.40;;;;;;5006753;28;20201;-43
2024/01/19 10:27:54;;;;;;;0.00;0.00;;;28.10;44.40;;;;;;5008191;28;20610;-46
2024/01/19 10:30:27;;;;;;;0.00;0.00;;;28.00;44.30;;;;;;5010401;28;20235;-44
2024/01/19 10:33:08;;;;;;;0.00;0.00;;;28.00;44.30;;;;;;5011428;28;20216;-42
2024/01/19 10:35:41;;;;;;;0.00;0.00;;;28.00;44.30;;;;;;5010918;28;20208;-41
2024/01/19 10:38:12;;;;;;;0.00;0.00;;;28.00;44.30;;;;;;5011260;28;20201;-41
2024/01/19 10:40:44;;;;;;;0.00;0.00;;;28.00;44.30;;;;;;5011380;28;20287;-41
2024/01/19 10:43:25;;;;;;;0.00;0.00;;;28.00;44.30;;;;;;5010410;28;20232;-43
2024/01/19 10:45:55;;;;;;;0.00;0.00;;;28.00;44.30;;;;;;5011648;28;20661;-42
2024/01/19 10:48:30;;;;;;;0.00;0.00;;;28.00;44.30;;;;;;5010630;28;20208;-41
2024/01/19 10:51:06;;;;;;;0.00;0.00;;;28.00;44.30;;;;;;5011217;28;20223;-44
2024/01/19 10:53:36;;;;;;;0.00;0.00;;;27.90;44.30;;;;;;5010312;28;20220;-41
2024/01/19 10:56:09;;;;;;;0.00;0.00;;;28.00;44.40;;;;;;5010874;28;20567;-41
2024/01/19 10:58:40;;;;;;;0.00;0.00;;;27.90;44.40;;;;;;5010766;28;20201;-44
2024/01/19 11:01:17;;;;;;;0.00;0.00;;;27.90;44.50;;;;;;5011026;28;20200;-42
2024/01/19 11:03:48;;;;;;;0.00;0.00;;;27.90;44.50;;;;;;5010773;28;20197;-42
2024/01/19 11:06:19;;;;;;;0.00;0.00;;;27.90;44.60;;;;;;5009705;28;20200;-44
2024/01/19 11:08:50;;;;;;;0.00;0.00;;;27.90;44.50;;;;;;5010066;28;20224;-43
2024/01/19 11:11:28;;;;;;;0.00;0.00;;;27.90;44.50;;;;;;5010343;28;20205;-46
2024/01/19 11:14:05;;;;;;;0.00;0.00;;;27.90;44.60;;;;;;5010345;28;20307;-45
2024/01/19 11:16:44;;;;;;;0.00;0.00;;;27.90;44.60;;;;;;5009254;28;20683;-43
2024/01/19 11:19:17;;;;;;;0.00;0.00;;;27.90;44.60;;;;;;5010625;28;20724;-41
2024/01/19 11:21:48;;;;;;;0.00;0.00;;;27.80;44.50;;;;;;5008853;28;20759;-45
2024/01/19 11:24:20;;;;;;;0.00;0.00;;;27.90;44.60;;;;;;5010371;28;20201;-41
2024/01/19 11:27:05;;;;;;;0.00;0.00;;;27.90;44.50;;;;;;5009568;28;20209;-41
2024/01/19 11:29:37;;;;;;;0.00;0.00;;;27.80;44.40;;;;;;5010167;28;20247;-41
2024/01/19 11:32:09;;;;;;;0.00;0.00;;;27.80;44.50;;;;;;5009757;28;20697;-44
2024/01/19 11:34:50;;;;;;;0.00;0.00;;;27.80;44.40;;;;;;5010549;28;20598;-41
2024/01/19 11:37:48;;;;;;;0.00;0.00;;;27.80;44.40;;;;;;5010013;28;20292;-41
2024/01/19 11:40:50;;;;;;;0.00;0.00;;;27.80;44.50;;;;;;5009309;28;20288;-42
2024/01/19 11:43:40;;;;;;;0.00;0.00;;;27.80;44.50;;;;;;5007377;28;20624;-41
2024/01/19 11:46:12;;;;;;;0.00;0.00;;;27.70;44.50;;;;;;5008995;28;20460;-47
2024/01/19 11:48:46;;;;;;;0.00;0.00;;;27.70;44.50;;;;;;5009230;28;20196;-43
2024/01/19 11:51:34;;;;;;;0.00;0.00;;;27.70;44.60;;;;;;5006106;28;20630;-41
2024/01/19 11:54:06;;;;;;;0.00;0.00;;;27.70;44.60;;;;;;5008503;28;20283;-43
2024/01/19 11:56:37;;;;;;;0.00;0.00;;;27.70;44.70;;;;;;5009358;28;20245;-41
2024/01/19 11:59:09;;;;;;;0.00;0.00;;;27.70;44.70;;;;;;5009314;28;20684;-42
2024/01/19 12:01:43;;;;;;;0.00;0.00;;;27.70;44.70;;;;;;5013113;28;20212;-41
2024/01/19 12:04:15;;;;;;;0.00;0.00;;;27.70;44.70;;;;;;5012862;28;20267;-45
2024/01/19 12:06:46;;;;;;;0.00;0.00;;;27.70;44.70;;;;;;5012256;28;20201;-42
2024/01/19 12:09:17;;;;;;;0.00;0.00;;;27.70;44.70;;;;;;5012451;28;20224;-43
2024/01/19 12:11:47;;;;;;;0.00;0.00;;;27.70;44.70;;;;;;5012659;28;20225;-42
2024/01/19 12:14:20;;;;;;;0.00;0.00;;;27.70;44.70;;;;;;5012181;28;20212;-45
2024/01/19 12:16:50;;;;;;;0.00;0.00;;;27.70;44.70;;;;;;5012911;28;20204;-42
2024/01/19 12:19:22;;;;;;;0.00;0.00;;;27.70;44.70;;;;;;5007646;28;20197;-44
2024/01/19 12:21:53;;;;;;;0.00;0.00;;;27.70;44.70;;;;;;5011074;28;20216;-41
2024/01/19 12:24:24;;;;;;;0.00;0.00;;;27.70;44.70;;;;;;5011475;28;20200;-42
2024/01/19 12:26:55;;;;;;;0.00;0.00;;;27.70;44.70;;;;;;5012210;28;20188;-41
2024/01/19 12:29:36;;;;;;;0.00;0.00;;;27.60;44.60;;;;;;5009631;28;20270;-41
2024/01/19 12:32:18;;;;;;;0.00;0.00;;;27.60;44.60;;;;;;5009528;28;20208;-47
2024/01/19 12:35:01;;;;;;;0.00;0.00;;;27.60;44.60;;;;;;5009880;28;20199;-44
2024/01/19 12:37:32;;;;;;;0.00;0.00;;;27.60;44.70;;;;;;5010352;28;20197;-43
2024/01/19 12:40:15;;;;;;;0.00;0.00;;;27.60;44.70;;;;;;5011867;28;20181;-41
2024/01/19 12:42:46;;;;;;;0.00;0.00;;;27.60;44.80;;;;;;5009445;28;20209;-41
2024/01/19 12:45:21;;;;;;;0.00;0.00;;;27.60;44.80;;;;;;5012171;28;20188;-41
2024/01/19 12:47:52;;;;;;;0.00;0.00;;;27.60;44.80;;;;;;5010084;28;20275;-40
2024/01/19 12:50:23;;;;;;;0.00;0.00;;;27.60;44.80;;;;;;5012103;28;20217;-41
2024/01/19 12:52:54;;;;;;;0.00;0.00;;;27.60;44.90;;;;;;5012163;28;20283;-41
2024/01/19 12:55:32;;;;;;;0.00;0.00;;;27.60;44.90;;;;;;5012061;28;20581;-42
2024/01/19 12:58:03;;;;;;;0.00;0.00;;;27.60;44.90;;;;;;5012038;28;20200;-45
2024/01/19 13:00:35;;;;;;;0.00;0.00;;;27.50;44.90;;;;;;5012523;28;20201;-53
2024/01/19 13:03:06;;;;;;;0.00;0.00;;;27.60;44.90;;;;;;5012193;28;20220;-42
2024/01/19 13:05:37;;;;;;;0.00;0.00;;;27.50;44.80;;;;;;5012213;28;20201;-48
2024/01/19 13:08:10;;;;;;;0.00;0.00;;;27.50;44.90;;;;;;5011801;28;20205;-52
2024/01/19 13:10:42;;;;;;;0.00;0.00;;;27.50;44.90;;;;;;5011405;28;20232;-41
2024/01/19 13:13:16;;;;;;;0.00;0.00;;;27.60;45.00;;;;;;5012053;28;20221;-50
2024/01/19 13:15:48;;;;;;;0.00;0.00;;;27.60;45.00;;;;;;5011017;28;20209;-41
2024/01/19 13:18:24;;;;;;;0.00;0.00;;;27.60;45.00;;;;;;5012313;28;20192;-43
2024/01/19 13:20:55;;;;;;;0.00;0.00;;;27.50;44.90;;;;;;5012059;28;20204;-43
2024/01/19 13:23:25;;;;;;;0.00;0.00;;;27.50;45.00;;;;;;5011746;28;20223;-41
2024/01/19 13:25:56;;;;;;;0.00;0.00;;;27.50;45.00;;;;;;5011363;28;20196;-46
2024/01/19 13:28:27;;;;;;;0.00;0.00;;;27.50;45.00;;;;;;5011406;28;20201;-43
2024/01/19 13:30:59;;;;;;;0.00;0.00;;;27.50;45.00;;;;;;5011729;28;20224;-47
2024/01/19 13:33:30;;;;;;;0.00;0.00;;;27.50;45.00;;;;;;5011590;28;20616;-47
2024/01/19 13:36:01;;;;;;;0.00;0.00;;;27.50;45.10;;;;;;5011415;28;20196;-46
2024/01/19 13:38:31;;;;;;;0.00;0.00;;;27.50;45.10;;;;;;5011326;28;20211;-47
2024/01/19 13:41:02;;;;;;;0.00;0.00;;;27.40;45.10;;;;;;5011446;28;20192;-48
2024/01/19 13:43:32;;;;;;;0.00;0.00;;;27.50;45.20;;;;;;5011096;28;20217;-47